sensor_id;sensor_type;location;lat;lon;timestamp;P1;durP1;ratioP1;P2;durP2;ratioP2
76157;SDS011;64907;51.574;6.502;2023-11-21T00:04:42;32.63;;;18.20;;
76157;SDS011;64907;51.574;6.502;2023-11-21T00:09:38;33.47;;;18.48;;
76157;SDS011;64907;51.574;6.502;2023-11-21T00:12:03;27.33;;;16.75;;
76157;SDS011;64907;51.574;6.502;2023-11-21T00:14:28;30.90;;;17.20;;
76157;SDS011;64907;51.574;6.502;2023-11-21T00:16:53;31.33;;;16.60;;
76157;SDS011;64907;51.574;6.502;2023-11-21T00:19:19;25.80;;;16.43;;
76157;SDS011;64907;51.574;6.502;2023-11-21T00:21:46;30.10;;;17.42;;
76157;SDS011;64907;51.574;6.502;2023-11-21T00:24:11;31.30;;;19.20;;
76157;SDS011;64907;51.574;6.502;2023-11-21T00:26:38;29.33;;;18.40;;
76157;SDS011;64907;51.574;6.502;2023-11-21T00:29:04;33.35;;;18.15;;
76157;SDS011;64907;51.574;6.502;2023-11-21T00:31:32;30.08;;;18.58;;
76157;SDS011;64907;51.574;6.502;2023-11-21T00:33:58;51.33;;;19.27;;
76157;SDS011;64907;51.574;6.502;2023-11-21T00:36:23;33.50;;;19.37;;
76157;SDS011;64907;51.574;6.502;2023-11-21T00:38:48;29.90;;;19.48;;
76157;SDS011;64907;51.574;6.502;2023-11-21T00:41:13;35.63;;;19.67;;
76157;SDS011;64907;51.574;6.502;2023-11-21T00:43:39;32.63;;;19.55;;
76157;SDS011;64907;51.574;6.502;2023-11-21T00:46:05;30.67;;;19.05;;
76157;SDS011;64907;51.574;6.502;2023-11-21T00:48:39;34.97;;;19.60;;
76157;SDS011;64907;51.574;6.502;2023-11-21T00:51:04;37.38;;;21.27;;
76157;SDS011;64907;51.574;6.502;2023-11-21T00:56:00;29.52;;;18.73;;
76157;SDS011;64907;51.574;6.502;2023-11-21T00:58:25;31.38;;;18.38;;
76157;SDS011;64907;51.574;6.502;2023-11-21T01:00:50;30.48;;;17.95;;
76157;SDS011;64907;51.574;6.502;2023-11-21T01:03:15;35.55;;;17.92;;
76157;SDS011;64907;51.574;6.502;2023-11-21T01:05:41;33.15;;;18.80;;
76157;SDS011;64907;51.574;6.502;2023-11-21T01:08:14;30.88;;;18.75;;
76157;SDS011;64907;51.574;6.502;2023-11-21T01:10:39;32.55;;;18.77;;
76157;SDS011;64907;51.574;6.502;2023-11-21T01:13:04;42.43;;;20.17;;
76157;SDS011;64907;51.574;6.502;2023-11-21T01:15:30;32.65;;;18.73;;
76157;SDS011;64907;51.574;6.502;2023-11-21T01:17:55;34.72;;;18.77;;
76157;SDS011;64907;51.574;6.502;2023-11-21T01:23:07;35.25;;;19.50;;
76157;SDS011;64907;51.574;6.502;2023-11-21T01:28:23;30.92;;;18.75;;
76157;SDS011;64907;51.574;6.502;2023-11-21T01:30:48;36.92;;;19.92;;
76157;SDS011;64907;51.574;6.502;2023-11-21T01:33:13;33.78;;;20.15;;
76157;SDS011;64907;51.574;6.502;2023-11-21T01:38:27;29.67;;;18.90;;
76157;SDS011;64907;51.574;6.502;2023-11-21T01:40:54;36.30;;;20.77;;
76157;SDS011;64907;51.574;6.502;2023-11-21T01:43:19;30.42;;;19.05;;
76157;SDS011;64907;51.574;6.502;2023-11-21T01:45:45;33.72;;;20.23;;
76157;SDS011;64907;51.574;6.502;2023-11-21T01:48:18;37.08;;;20.80;;
76157;SDS011;64907;51.574;6.502;2023-11-21T01:50:44;34.33;;;21.80;;
76157;SDS011;64907;51.574;6.502;2023-11-21T01:53:10;36.30;;;21.35;;
76157;SDS011;64907;51.574;6.502;2023-11-21T01:55:36;39.72;;;21.85;;
76157;SDS011;64907;51.574;6.502;2023-11-21T01:58:01;38.53;;;23.10;;
76157;SDS011;64907;51.574;6.502;2023-11-21T02:03:20;41.50;;;23.02;;
76157;SDS011;64907;51.574;6.502;2023-11-21T02:05:46;38.22;;;22.25;;
76157;SDS011;64907;51.574;6.502;2023-11-21T02:10:52;41.40;;;24.50;;
76157;SDS011;64907;51.574;6.502;2023-11-21T02:13:17;42.13;;;23.53;;
76157;SDS011;64907;51.574;6.502;2023-11-21T02:15:45;40.40;;;23.60;;
76157;SDS011;64907;51.574;6.502;2023-11-21T02:18:10;41.05;;;23.20;;
76157;SDS011;64907;51.574;6.502;2023-11-21T02:20:36;42.75;;;24.60;;
76157;SDS011;64907;51.574;6.502;2023-11-21T02:23:03;43.45;;;25.25;;
76157;SDS011;64907;51.574;6.502;2023-11-21T02:25:30;43.63;;;23.63;;
76157;SDS011;64907;51.574;6.502;2023-11-21T02:28:05;39.28;;;22.92;;
76157;SDS011;64907;51.574;6.502;2023-11-21T02:30:31;52.88;;;25.88;;
76157;SDS011;64907;51.574;6.502;2023-11-21T02:32:57;54.60;;;24.83;;
76157;SDS011;64907;51.574;6.502;2023-11-21T02:35:22;52.78;;;27.92;;
76157;SDS011;64907;51.574;6.502;2023-11-21T02:37:48;48.40;;;24.50;;
76157;SDS011;64907;51.574;6.502;2023-11-21T02:40:13;37.38;;;23.92;;
76157;SDS011;64907;51.574;6.502;2023-11-21T02:42:50;46.05;;;26.42;;
76157;SDS011;64907;51.574;6.502;2023-11-21T02:45:16;52.17;;;26.85;;
76157;SDS011;64907;51.574;6.502;2023-11-21T02:47:45;53.15;;;26.48;;
76157;SDS011;64907;51.574;6.502;2023-11-21T02:50:11;48.00;;;25.20;;
76157;SDS011;64907;51.574;6.502;2023-11-21T02:52:36;43.40;;;26.60;;
76157;SDS011;64907;51.574;6.502;2023-11-21T02:55:02;56.40;;;28.02;;
76157;SDS011;64907;51.574;6.502;2023-11-21T02:57:40;58.33;;;28.45;;
76157;SDS011;64907;51.574;6.502;2023-11-21T03:00:05;44.50;;;25.40;;
76157;SDS011;64907;51.574;6.502;2023-11-21T03:02:32;62.00;;;29.10;;
76157;SDS011;64907;51.574;6.502;2023-11-21T03:04:57;60.50;;;28.88;;
76157;SDS011;64907;51.574;6.502;2023-11-21T03:10:12;55.67;;;27.35;;
76157;SDS011;64907;51.574;6.502;2023-11-21T03:12:37;87.63;;;33.80;;
76157;SDS011;64907;51.574;6.502;2023-11-21T03:15:03;66.10;;;31.35;;
76157;SDS011;64907;51.574;6.502;2023-11-21T03:17:29;58.05;;;28.92;;
76157;SDS011;64907;51.574;6.502;2023-11-21T03:19:54;71.15;;;31.65;;
76157;SDS011;64907;51.574;6.502;2023-11-21T03:22:19;66.30;;;33.40;;
76157;SDS011;64907;51.574;6.502;2023-11-21T03:24:44;72.72;;;33.20;;
76157;SDS011;64907;51.574;6.502;2023-11-21T03:27:10;94.80;;;38.20;;
76157;SDS011;64907;51.574;6.502;2023-11-21T03:29:35;71.15;;;31.77;;
76157;SDS011;64907;51.574;6.502;2023-11-21T03:32:00;78.55;;;36.22;;
76157;SDS011;64907;51.574;6.502;2023-11-21T03:34:26;77.32;;;32.95;;
76157;SDS011;64907;51.574;6.502;2023-11-21T03:36:52;87.85;;;35.40;;
76157;SDS011;64907;51.574;6.502;2023-11-21T03:42:06;84.30;;;36.15;;
76157;SDS011;64907;51.574;6.502;2023-11-21T03:44:32;98.65;;;37.58;;
76157;SDS011;64907;51.574;6.502;2023-11-21T03:49:27;72.15;;;32.17;;
76157;SDS011;64907;51.574;6.502;2023-11-21T03:51:54;106.53;;;38.08;;
76157;SDS011;64907;51.574;6.502;2023-11-21T03:54:19;103.35;;;37.10;;
76157;SDS011;64907;51.574;6.502;2023-11-21T03:56:45;159.32;;;44.03;;
76157;SDS011;64907;51.574;6.502;2023-11-21T03:59:10;131.90;;;39.53;;
76157;SDS011;64907;51.574;6.502;2023-11-21T04:07:15;157.05;;;42.90;;
76157;SDS011;64907;51.574;6.502;2023-11-21T04:09:40;170.85;;;44.03;;
76157;SDS011;64907;51.574;6.502;2023-11-21T04:14:50;214.88;;;44.28;;
76157;SDS011;64907;51.574;6.502;2023-11-21T04:17:17;197.98;;;42.00;;
76157;SDS011;64907;51.574;6.502;2023-11-21T04:19:43;225.93;;;42.65;;
76157;SDS011;64907;51.574;6.502;2023-11-21T04:22:09;197.80;;;43.83;;
76157;SDS011;64907;51.574;6.502;2023-11-21T04:24:35;225.80;;;44.35;;
76157;SDS011;64907;51.574;6.502;2023-11-21T04:27:00;271.90;;;48.10;;
76157;SDS011;64907;51.574;6.502;2023-11-21T04:29:25;198.87;;;43.00;;
76157;SDS011;64907;51.574;6.502;2023-11-21T04:31:52;269.75;;;45.08;;
76157;SDS011;64907;51.574;6.502;2023-11-21T04:34:17;142.30;;;39.50;;
76157;SDS011;64907;51.574;6.502;2023-11-21T04:39:11;290.67;;;44.95;;
76157;SDS011;64907;51.574;6.502;2023-11-21T04:41:37;279.75;;;47.33;;
76157;SDS011;64907;51.574;6.502;2023-11-21T04:44:04;164.75;;;39.35;;
76157;SDS011;64907;51.574;6.502;2023-11-21T04:46:29;302.85;;;43.92;;
76157;SDS011;64907;51.574;6.502;2023-11-21T04:48:55;318.95;;;51.42;;
76157;SDS011;64907;51.574;6.502;2023-11-21T04:51:20;336.87;;;47.40;;
76157;SDS011;64907;51.574;6.502;2023-11-21T04:53:45;248.32;;;43.95;;
76157;SDS011;64907;51.574;6.502;2023-11-21T04:58:56;232.25;;;41.60;;
76157;SDS011;64907;51.574;6.502;2023-11-21T05:01:21;242.93;;;47.15;;
76157;SDS011;64907;51.574;6.502;2023-11-21T05:03:46;297.17;;;46.75;;
76157;SDS011;64907;51.574;6.502;2023-11-21T05:06:12;292.48;;;47.22;;
76157;SDS011;64907;51.574;6.502;2023-11-21T05:08:37;338.92;;;47.05;;
76157;SDS011;64907;51.574;6.502;2023-11-21T05:14:13;212.18;;;41.33;;
76157;SDS011;64907;51.574;6.502;2023-11-21T05:16:39;399.52;;;52.05;;
76157;SDS011;64907;51.574;6.502;2023-11-21T05:19:04;200.00;;;42.45;;
76157;SDS011;64907;51.574;6.502;2023-11-21T05:21:30;338.85;;;49.88;;
76157;SDS011;64907;51.574;6.502;2023-11-21T05:23:57;188.20;;;34.92;;
76157;SDS011;64907;51.574;6.502;2023-11-21T05:26:22;145.55;;;31.20;;
76157;SDS011;64907;51.574;6.502;2023-11-21T05:28:48;246.45;;;38.75;;
76157;SDS011;64907;51.574;6.502;2023-11-21T05:31:13;199.95;;;32.65;;
76157;SDS011;64907;51.574;6.502;2023-11-21T05:33:38;244.23;;;35.22;;
76157;SDS011;64907;51.574;6.502;2023-11-21T05:36:04;140.30;;;32.38;;
76157;SDS011;64907;51.574;6.502;2023-11-21T05:38:29;192.68;;;31.50;;
76157;SDS011;64907;51.574;6.502;2023-11-21T05:40:54;233.43;;;33.38;;
76157;SDS011;64907;51.574;6.502;2023-11-21T05:46:01;282.88;;;48.08;;
76157;SDS011;64907;51.574;6.502;2023-11-21T05:50:56;298.77;;;39.30;;
76157;SDS011;64907;51.574;6.502;2023-11-21T05:53:21;287.80;;;40.83;;
76157;SDS011;64907;51.574;6.502;2023-11-21T05:55:47;227.75;;;37.20;;
76157;SDS011;64907;51.574;6.502;2023-11-21T05:58:12;216.65;;;39.30;;
76157;SDS011;64907;51.574;6.502;2023-11-21T06:00:38;210.63;;;36.95;;
76157;SDS011;64907;51.574;6.502;2023-11-21T06:03:03;334.95;;;43.22;;
76157;SDS011;64907;51.574;6.502;2023-11-21T06:05:31;344.75;;;42.53;;
76157;SDS011;64907;51.574;6.502;2023-11-21T06:07:57;260.73;;;41.60;;
76157;SDS011;64907;51.574;6.502;2023-11-21T06:10:25;167.02;;;34.30;;
76157;SDS011;64907;51.574;6.502;2023-11-21T06:12:51;186.30;;;36.03;;
76157;SDS011;64907;51.574;6.502;2023-11-21T06:15:17;180.30;;;36.58;;
76157;SDS011;64907;51.574;6.502;2023-11-21T06:17:44;345.52;;;47.72;;
76157;SDS011;64907;51.574;6.502;2023-11-21T06:20:18;274.67;;;41.55;;
76157;SDS011;64907;51.574;6.502;2023-11-21T06:22:51;373.33;;;45.22;;
76157;SDS011;64907;51.574;6.502;2023-11-21T06:25:16;225.73;;;41.17;;
76157;SDS011;64907;51.574;6.502;2023-11-21T06:30:13;211.02;;;38.55;;
76157;SDS011;64907;51.574;6.502;2023-11-21T06:32:39;381.80;;;48.83;;
76157;SDS011;64907;51.574;6.502;2023-11-21T06:35:10;144.52;;;35.97;;
76157;SDS011;64907;51.574;6.502;2023-11-21T06:37:44;211.77;;;37.75;;
76157;SDS011;64907;51.574;6.502;2023-11-21T06:40:15;219.73;;;39.30;;
76157;SDS011;64907;51.574;6.502;2023-11-21T06:45:13;154.48;;;34.75;;
76157;SDS011;64907;51.574;6.502;2023-11-21T06:50:10;103.57;;;29.90;;
76157;SDS011;64907;51.574;6.502;2023-11-21T06:52:35;212.30;;;36.65;;
76157;SDS011;64907;51.574;6.502;2023-11-21T06:55:09;80.43;;;29.38;;
76157;SDS011;64907;51.574;6.502;2023-11-21T06:57:37;93.57;;;31.10;;
76157;SDS011;64907;51.574;6.502;2023-11-21T07:00:03;135.52;;;31.85;;
76157;SDS011;64907;51.574;6.502;2023-11-21T07:02:36;117.85;;;31.40;;
76157;SDS011;64907;51.574;6.502;2023-11-21T07:05:02;87.18;;;27.60;;
76157;SDS011;64907;51.574;6.502;2023-11-21T07:07:27;220.35;;;34.60;;
76157;SDS011;64907;51.574;6.502;2023-11-21T07:12:29;103.50;;;40.23;;
76157;SDS011;64907;51.574;6.502;2023-11-21T07:14:55;173.30;;;35.78;;
76157;SDS011;64907;51.574;6.502;2023-11-21T07:17:20;82.90;;;28.45;;
76157;SDS011;64907;51.574;6.502;2023-11-21T07:19:48;125.03;;;28.30;;
76157;SDS011;64907;51.574;6.502;2023-11-21T07:22:26;95.20;;;28.13;;
76157;SDS011;64907;51.574;6.502;2023-11-21T07:24:57;136.23;;;30.63;;
76157;SDS011;64907;51.574;6.502;2023-11-21T07:27:22;142.95;;;31.05;;
76157;SDS011;64907;51.574;6.502;2023-11-21T07:29:48;160.50;;;30.67;;
76157;SDS011;64907;51.574;6.502;2023-11-21T07:32:13;128.60;;;30.53;;
76157;SDS011;64907;51.574;6.502;2023-11-21T07:34:39;95.90;;;27.58;;
76157;SDS011;64907;51.574;6.502;2023-11-21T07:37:05;87.45;;;25.55;;
76157;SDS011;64907;51.574;6.502;2023-11-21T07:39:30;81.40;;;27.37;;
76157;SDS011;64907;51.574;6.502;2023-11-21T07:41:57;117.03;;;28.50;;
76157;SDS011;64907;51.574;6.502;2023-11-21T07:44:23;129.13;;;28.50;;
76157;SDS011;64907;51.574;6.502;2023-11-21T07:46:48;167.60;;;30.98;;
76157;SDS011;64907;51.574;6.502;2023-11-21T07:49:14;198.07;;;32.70;;
76157;SDS011;64907;51.574;6.502;2023-11-21T07:51:41;217.35;;;34.17;;
76157;SDS011;64907;51.574;6.502;2023-11-21T07:54:06;195.18;;;31.70;;
76157;SDS011;64907;51.574;6.502;2023-11-21T07:56:31;93.87;;;30.13;;
76157;SDS011;64907;51.574;6.502;2023-11-21T07:58:57;105.38;;;29.75;;
76157;SDS011;64907;51.574;6.502;2023-11-21T08:01:22;89.35;;;29.42;;
76157;SDS011;64907;51.574;6.502;2023-11-21T08:03:47;87.15;;;28.10;;
76157;SDS011;64907;51.574;6.502;2023-11-21T08:06:25;130.80;;;32.38;;
76157;SDS011;64907;51.574;6.502;2023-11-21T08:08:51;128.27;;;30.02;;
76157;SDS011;64907;51.574;6.502;2023-11-21T08:11:16;107.88;;;30.17;;
76157;SDS011;64907;51.574;6.502;2023-11-21T08:13:41;148.93;;;33.47;;
76157;SDS011;64907;51.574;6.502;2023-11-21T08:16:15;90.27;;;29.83;;
76157;SDS011;64907;51.574;6.502;2023-11-21T08:18:41;101.75;;;31.95;;
76157;SDS011;64907;51.574;6.502;2023-11-21T08:21:07;70.93;;;27.35;;
76157;SDS011;64907;51.574;6.502;2023-11-21T08:23:33;85.15;;;29.33;;
76157;SDS011;64907;51.574;6.502;2023-11-21T08:25:59;62.15;;;26.73;;
76157;SDS011;64907;51.574;6.502;2023-11-21T08:28:24;57.72;;;25.52;;
76157;SDS011;64907;51.574;6.502;2023-11-21T08:30:51;59.90;;;27.33;;
76157;SDS011;64907;51.574;6.502;2023-11-21T08:33:16;46.80;;;24.35;;
76157;SDS011;64907;51.574;6.502;2023-11-21T08:35:41;54.88;;;26.50;;
76157;SDS011;64907;51.574;6.502;2023-11-21T08:41:02;73.30;;;29.33;;
76157;SDS011;64907;51.574;6.502;2023-11-21T08:43:28;91.63;;;32.67;;
76157;SDS011;64907;51.574;6.502;2023-11-21T08:48:22;106.40;;;31.50;;
76157;SDS011;64907;51.574;6.502;2023-11-21T08:50:47;53.47;;;28.08;;
76157;SDS011;64907;51.574;6.502;2023-11-21T08:53:12;63.77;;;28.50;;
76157;SDS011;64907;51.574;6.502;2023-11-21T08:55:41;52.80;;;27.10;;
76157;SDS011;64907;51.574;6.502;2023-11-21T08:58:06;52.05;;;27.20;;
76157;SDS011;64907;51.574;6.502;2023-11-21T09:00:32;52.95;;;28.70;;
76157;SDS011;64907;51.574;6.502;2023-11-21T09:02:57;46.22;;;25.15;;
76157;SDS011;64907;51.574;6.502;2023-11-21T09:05:22;38.08;;;23.75;;
76157;SDS011;64907;51.574;6.502;2023-11-21T09:07:48;36.28;;;23.38;;
76157;SDS011;64907;51.574;6.502;2023-11-21T09:10:13;42.78;;;23.83;;
76157;SDS011;64907;51.574;6.502;2023-11-21T09:12:39;37.08;;;23.52;;
76157;SDS011;64907;51.574;6.502;2023-11-21T09:15:05;37.90;;;24.58;;
76157;SDS011;64907;51.574;6.502;2023-11-21T09:17:31;40.50;;;23.90;;
76157;SDS011;64907;51.574;6.502;2023-11-21T09:22:24;38.08;;;22.88;;
76157;SDS011;64907;51.574;6.502;2023-11-21T09:24:50;37.95;;;23.08;;
76157;SDS011;64907;51.574;6.502;2023-11-21T09:27:15;37.72;;;24.33;;
76157;SDS011;64907;51.574;6.502;2023-11-21T09:29:42;38.30;;;22.88;;
76157;SDS011;64907;51.574;6.502;2023-11-21T09:32:07;34.20;;;22.13;;
76157;SDS011;64907;51.574;6.502;2023-11-21T09:34:33;36.65;;;22.83;;
76157;SDS011;64907;51.574;6.502;2023-11-21T09:37:01;34.38;;;23.10;;
76157;SDS011;64907;51.574;6.502;2023-11-21T09:39:30;35.60;;;22.15;;
76157;SDS011;64907;51.574;6.502;2023-11-21T09:42:20;42.65;;;23.83;;
76157;SDS011;64907;51.574;6.502;2023-11-21T09:47:23;41.80;;;24.25;;
76157;SDS011;64907;51.574;6.502;2023-11-21T09:49:49;39.53;;;23.38;;
76157;SDS011;64907;51.574;6.502;2023-11-21T09:52:27;42.30;;;24.08;;
76157;SDS011;64907;51.574;6.502;2023-11-21T09:54:52;42.33;;;26.35;;
76157;SDS011;64907;51.574;6.502;2023-11-21T09:57:19;41.80;;;26.95;;
76157;SDS011;64907;51.574;6.502;2023-11-21T09:59:44;41.35;;;24.98;;
76157;SDS011;64907;51.574;6.502;2023-11-21T10:02:10;39.15;;;24.95;;
76157;SDS011;64907;51.574;6.502;2023-11-21T10:04:41;46.63;;;24.10;;
76157;SDS011;64907;51.574;6.502;2023-11-21T10:07:06;37.65;;;23.17;;
76157;SDS011;64907;51.574;6.502;2023-11-21T10:09:35;35.50;;;23.25;;
76157;SDS011;64907;51.574;6.502;2023-11-21T10:12:01;32.42;;;22.55;;
76157;SDS011;64907;51.574;6.502;2023-11-21T10:14:28;35.63;;;22.48;;
76157;SDS011;64907;51.574;6.502;2023-11-21T10:16:54;43.42;;;23.83;;
76157;SDS011;64907;51.574;6.502;2023-11-21T10:19:19;31.83;;;22.65;;
76157;SDS011;64907;51.574;6.502;2023-11-21T10:21:46;35.30;;;21.40;;
76157;SDS011;64907;51.574;6.502;2023-11-21T10:24:13;32.97;;;21.23;;
76157;SDS011;64907;51.574;6.502;2023-11-21T10:26:38;36.28;;;22.70;;
76157;SDS011;64907;51.574;6.502;2023-11-21T10:29:04;33.13;;;21.05;;
76157;SDS011;64907;51.574;6.502;2023-11-21T10:31:41;33.63;;;22.17;;
76157;SDS011;64907;51.574;6.502;2023-11-21T10:36:37;33.80;;;22.60;;
76157;SDS011;64907;51.574;6.502;2023-11-21T10:39:03;33.87;;;21.53;;
76157;SDS011;64907;51.574;6.502;2023-11-21T10:41:28;31.83;;;21.55;;
76157;SDS011;64907;51.574;6.502;2023-11-21T10:43:53;36.72;;;22.75;;
76157;SDS011;64907;51.574;6.502;2023-11-21T10:46:23;35.38;;;21.98;;
76157;SDS011;64907;51.574;6.502;2023-11-21T10:48:52;31.92;;;21.25;;
76157;SDS011;64907;51.574;6.502;2023-11-21T10:51:17;36.25;;;22.42;;
76157;SDS011;64907;51.574;6.502;2023-11-21T10:53:44;33.70;;;21.20;;
76157;SDS011;64907;51.574;6.502;2023-11-21T10:58:42;36.22;;;20.00;;
76157;SDS011;64907;51.574;6.502;2023-11-21T11:01:08;35.38;;;20.50;;
76157;SDS011;64907;51.574;6.502;2023-11-21T11:03:36;29.88;;;18.63;;
76157;SDS011;64907;51.574;6.502;2023-11-21T11:06:21;38.25;;;21.33;;
76157;SDS011;64907;51.574;6.502;2023-11-21T11:08:46;33.97;;;21.60;;
76157;SDS011;64907;51.574;6.502;2023-11-21T11:11:21;40.25;;;23.00;;
76157;SDS011;64907;51.574;6.502;2023-11-21T11:13:47;44.20;;;22.65;;
76157;SDS011;64907;51.574;6.502;2023-11-21T11:16:13;38.10;;;21.73;;
76157;SDS011;64907;51.574;6.502;2023-11-21T11:18:42;44.33;;;24.58;;
76157;SDS011;64907;51.574;6.502;2023-11-21T11:24:13;40.65;;;22.50;;
76157;SDS011;64907;51.574;6.502;2023-11-21T11:26:46;49.08;;;24.30;;
76157;SDS011;64907;51.574;6.502;2023-11-21T11:29:23;51.10;;;26.13;;
76157;SDS011;64907;51.574;6.502;2023-11-21T11:32:12;49.50;;;25.70;;
76157;SDS011;64907;51.574;6.502;2023-11-21T11:34:53;44.45;;;25.38;;
76157;SDS011;64907;51.574;6.502;2023-11-21T11:37:20;42.95;;;24.58;;
76157;SDS011;64907;51.574;6.502;2023-11-21T11:39:45;42.22;;;24.65;;
76157;SDS011;64907;51.574;6.502;2023-11-21T11:42:15;36.45;;;22.52;;
76157;SDS011;64907;51.574;6.502;2023-11-21T11:47:16;35.67;;;21.23;;
76157;SDS011;64907;51.574;6.502;2023-11-21T11:52:46;35.10;;;20.55;;
76157;SDS011;64907;51.574;6.502;2023-11-21T11:55:12;36.90;;;20.13;;
76157;SDS011;64907;51.574;6.502;2023-11-21T11:57:47;34.95;;;22.33;;
76157;SDS011;64907;51.574;6.502;2023-11-21T12:02:41;30.15;;;20.60;;
76157;SDS011;64907;51.574;6.502;2023-11-21T12:05:14;35.88;;;20.13;;
76157;SDS011;64907;51.574;6.502;2023-11-21T12:10:19;45.42;;;22.83;;
76157;SDS011;64907;51.574;6.502;2023-11-21T12:12:48;40.40;;;21.85;;
76157;SDS011;64907;51.574;6.502;2023-11-21T12:15:14;32.65;;;19.95;;
76157;SDS011;64907;51.574;6.502;2023-11-21T12:17:43;35.85;;;21.27;;
76157;SDS011;64907;51.574;6.502;2023-11-21T12:20:24;39.30;;;23.25;;
76157;SDS011;64907;51.574;6.502;2023-11-21T12:22:54;45.22;;;26.00;;
76157;SDS011;64907;51.574;6.502;2023-11-21T12:25:23;50.17;;;29.48;;
76157;SDS011;64907;51.574;6.502;2023-11-21T12:27:49;56.53;;;35.72;;
76157;SDS011;64907;51.574;6.502;2023-11-21T12:30:15;47.40;;;27.20;;
76157;SDS011;64907;51.574;6.502;2023-11-21T12:32:42;54.22;;;33.85;;
76157;SDS011;64907;51.574;6.502;2023-11-21T12:37:44;35.38;;;22.27;;
76157;SDS011;64907;51.574;6.502;2023-11-21T12:40:10;43.00;;;24.20;;
76157;SDS011;64907;51.574;6.502;2023-11-21T12:42:43;44.45;;;24.48;;
76157;SDS011;64907;51.574;6.502;2023-11-21T12:47:41;56.90;;;27.00;;
76157;SDS011;64907;51.574;6.502;2023-11-21T12:50:06;56.67;;;28.50;;
76157;SDS011;64907;51.574;6.502;2023-11-21T12:52:51;44.15;;;24.50;;
76157;SDS011;64907;51.574;6.502;2023-11-21T12:55:20;49.08;;;24.20;;
76157;SDS011;64907;51.574;6.502;2023-11-21T12:57:51;51.22;;;26.73;;
76157;SDS011;64907;51.574;6.502;2023-11-21T13:00:17;41.55;;;23.40;;
76157;SDS011;64907;51.574;6.502;2023-11-21T13:02:55;58.13;;;25.88;;
76157;SDS011;64907;51.574;6.502;2023-11-21T13:07:50;57.67;;;26.90;;
76157;SDS011;64907;51.574;6.502;2023-11-21T13:10:19;49.25;;;26.77;;
76157;SDS011;64907;51.574;6.502;2023-11-21T13:20:49;51.38;;;26.13;;
76157;SDS011;64907;51.574;6.502;2023-11-21T13:23:15;42.53;;;24.23;;
76157;SDS011;64907;51.574;6.502;2023-11-21T13:25:43;48.15;;;26.05;;
76157;SDS011;64907;51.574;6.502;2023-11-21T13:31:01;44.33;;;23.02;;
76157;SDS011;64907;51.574;6.502;2023-11-21T13:39:09;40.17;;;20.08;;
76157;SDS011;64907;51.574;6.502;2023-11-21T13:41:49;43.78;;;22.48;;
76157;SDS011;64907;51.574;6.502;2023-11-21T13:47:10;44.28;;;22.55;;
76157;SDS011;64907;51.574;6.502;2023-11-21T13:49:37;39.00;;;20.75;;
76157;SDS011;64907;51.574;6.502;2023-11-21T13:52:06;42.95;;;20.55;;
76157;SDS011;64907;51.574;6.502;2023-11-21T13:54:34;48.25;;;22.25;;
76157;SDS011;64907;51.574;6.502;2023-11-21T13:59:30;38.15;;;20.90;;
76157;SDS011;64907;51.574;6.502;2023-11-21T14:01:59;44.55;;;19.80;;
76157;SDS011;64907;51.574;6.502;2023-11-21T14:07:24;38.13;;;19.90;;
76157;SDS011;64907;51.574;6.502;2023-11-21T14:10:16;28.40;;;17.25;;
76157;SDS011;64907;51.574;6.502;2023-11-21T14:12:46;33.83;;;18.40;;
76157;SDS011;64907;51.574;6.502;2023-11-21T14:15:12;37.53;;;18.77;;
76157;SDS011;64907;51.574;6.502;2023-11-21T14:17:42;29.35;;;17.05;;
76157;SDS011;64907;51.574;6.502;2023-11-21T14:20:19;31.73;;;16.70;;
76157;SDS011;64907;51.574;6.502;2023-11-21T14:22:45;28.98;;;17.85;;
76157;SDS011;64907;51.574;6.502;2023-11-21T14:25:17;28.25;;;17.67;;
76157;SDS011;64907;51.574;6.502;2023-11-21T14:27:44;23.83;;;16.45;;
76157;SDS011;64907;51.574;6.502;2023-11-21T14:30:09;22.75;;;16.17;;
76157;SDS011;64907;51.574;6.502;2023-11-21T14:32:37;27.80;;;17.63;;
76157;SDS011;64907;51.574;6.502;2023-11-21T14:35:03;26.48;;;16.70;;
76157;SDS011;64907;51.574;6.502;2023-11-21T14:37:31;24.50;;;16.13;;
76157;SDS011;64907;51.574;6.502;2023-11-21T14:39:57;25.67;;;15.63;;
76157;SDS011;64907;51.574;6.502;2023-11-21T14:44:54;25.40;;;15.50;;
76157;SDS011;64907;51.574;6.502;2023-11-21T14:47:25;27.70;;;17.35;;
76157;SDS011;64907;51.574;6.502;2023-11-21T14:49:52;24.60;;;15.27;;
76157;SDS011;64907;51.574;6.502;2023-11-21T14:52:27;23.20;;;15.73;;
76157;SDS011;64907;51.574;6.502;2023-11-21T14:54:59;25.52;;;15.60;;
76157;SDS011;64907;51.574;6.502;2023-11-21T14:57:44;27.30;;;15.27;;
76157;SDS011;64907;51.574;6.502;2023-11-21T15:00:16;22.70;;;13.82;;
76157;SDS011;64907;51.574;6.502;2023-11-21T15:03:08;20.75;;;13.27;;
76157;SDS011;64907;51.574;6.502;2023-11-21T15:05:34;21.15;;;12.68;;
76157;SDS011;64907;51.574;6.502;2023-11-21T15:13:32;19.60;;;13.73;;
76157;SDS011;64907;51.574;6.502;2023-11-21T15:18:39;20.50;;;12.15;;
76157;SDS011;64907;51.574;6.502;2023-11-21T15:24:12;19.30;;;12.40;;
76157;SDS011;64907;51.574;6.502;2023-11-21T15:26:38;15.80;;;11.35;;
76157;SDS011;64907;51.574;6.502;2023-11-21T15:34:37;16.58;;;10.82;;
76157;SDS011;64907;51.574;6.502;2023-11-21T15:37:02;16.50;;;11.35;;
76157;SDS011;64907;51.574;6.502;2023-11-21T15:39:28;18.10;;;11.55;;
76157;SDS011;64907;51.574;6.502;2023-11-21T15:41:55;17.98;;;11.98;;
76157;SDS011;64907;51.574;6.502;2023-11-21T15:44:20;14.38;;;10.50;;
76157;SDS011;64907;51.574;6.502;2023-11-21T15:46:45;19.33;;;12.23;;
76157;SDS011;64907;51.574;6.502;2023-11-21T15:51:48;16.90;;;10.98;;
76157;SDS011;64907;51.574;6.502;2023-11-21T15:56:59;14.90;;;10.90;;
76157;SDS011;64907;51.574;6.502;2023-11-21T16:02:10;16.02;;;13.70;;
76157;SDS011;64907;51.574;6.502;2023-11-21T16:04:37;15.05;;;11.57;;
76157;SDS011;64907;51.574;6.502;2023-11-21T16:07:11;15.57;;;12.18;;
76157;SDS011;64907;51.574;6.502;2023-11-21T16:12:17;14.23;;;12.32;;
76157;SDS011;64907;51.574;6.502;2023-11-21T16:14:55;13.98;;;12.48;;
76157;SDS011;64907;51.574;6.502;2023-11-21T16:17:21;14.68;;;12.27;;
76157;SDS011;64907;51.574;6.502;2023-11-21T16:22:39;14.95;;;11.27;;
76157;SDS011;64907;51.574;6.502;2023-11-21T16:27:49;12.27;;;10.98;;
76157;SDS011;64907;51.574;6.502;2023-11-21T16:30:14;10.70;;;9.70;;
76157;SDS011;64907;51.574;6.502;2023-11-21T16:32:39;12.68;;;11.10;;
76157;SDS011;64907;51.574;6.502;2023-11-21T16:35:04;12.50;;;10.43;;
76157;SDS011;64907;51.574;6.502;2023-11-21T16:37:42;11.10;;;9.00;;
76157;SDS011;64907;51.574;6.502;2023-11-21T16:40:08;11.07;;;9.95;;
76157;SDS011;64907;51.574;6.502;2023-11-21T16:42:34;12.13;;;9.52;;
76157;SDS011;64907;51.574;6.502;2023-11-21T16:44:59;12.32;;;10.30;;
76157;SDS011;64907;51.574;6.502;2023-11-21T16:47:27;12.88;;;10.57;;
76157;SDS011;64907;51.574;6.502;2023-11-21T16:49:52;11.02;;;9.85;;
76157;SDS011;64907;51.574;6.502;2023-11-21T16:54:47;14.77;;;10.45;;
76157;SDS011;64907;51.574;6.502;2023-11-21T16:57:13;11.02;;;9.48;;
76157;SDS011;64907;51.574;6.502;2023-11-21T16:59:39;11.82;;;9.63;;
76157;SDS011;64907;51.574;6.502;2023-11-21T17:02:06;10.85;;;9.75;;